createdAt,value
2024-05-09T00:01:51.379Z,45.40
2024-05-09T00:06:56.025Z,45.30
2024-05-09T00:12:00.803Z,45.30
2024-05-09T00:17:08.148Z,45.30
2024-05-09T00:22:12.764Z,45.40
2024-05-09T00:27:17.362Z,45.40
2024-05-09T00:32:24.679Z,45.40
2024-05-09T00:37:29.424Z,45.50
2024-05-09T00:42:34.077Z,45.50
2024-05-09T00:47:42.284Z,45.50
2024-05-09T00:52:48.790Z,45.50
2024-05-09T00:57:54.318Z,46.10
2024-05-09T01:03:01.729Z,45.50
2024-05-09T01:08:07.367Z,45.60
2024-05-09T01:13:12.327Z,45.60
2024-05-09T01:18:19.786Z,45.60
2024-05-09T01:23:27.141Z,45.60
2024-05-09T01:28:31.776Z,45.60
2024-05-09T01:33:36.544Z,45.60
2024-05-09T01:38:43.913Z,45.60
2024-05-09T01:43:48.552Z,45.60
2024-05-09T01:48:53.352Z,45.60
2024-05-09T01:54:00.596Z,45.60
2024-05-09T01:59:06.858Z,45.60
2024-05-09T02:04:11.731Z,45.60
2024-05-09T02:09:19.435Z,45.60
2024-05-09T02:14:24.190Z,45.60
2024-05-09T02:19:29.151Z,45.60
2024-05-09T02:24:36.416Z,45.70
2024-05-09T02:29:41.065Z,45.70
2024-05-09T02:34:46.723Z,45.80
2024-05-09T02:39:53.956Z,45.80
2024-05-09T02:44:58.575Z,45.80
2024-05-09T02:50:04.578Z,45.80
2024-05-09T02:55:13.230Z,45.80
2024-05-09T03:00:22.928Z,45.80
2024-05-09T03:05:31.544Z,45.80
2024-05-09T03:10:39.674Z,45.80
2024-05-09T03:15:45.240Z,45.80
2024-05-09T03:20:49.902Z,45.80
2024-05-09T03:25:57.194Z,45.80
2024-05-09T03:31:01.822Z,45.80
2024-05-09T03:36:10.543Z,45.90
2024-05-09T03:41:18.355Z,45.90
2024-05-09T03:46:23.003Z,45.90
2024-05-09T03:51:27.574Z,45.90
2024-05-09T03:56:34.842Z,46.00
2024-05-09T04:01:39.578Z,46.00
2024-05-09T04:06:44.862Z,45.90
2024-05-09T04:11:52.378Z,46.00
2024-05-09T04:16:57.101Z,46.10
2024-05-09T04:22:01.709Z,46.10
2024-05-09T04:27:08.934Z,46.10
2024-05-09T04:32:13.754Z,46.10
2024-05-09T04:37:18.395Z,46.10
2024-05-09T04:42:25.575Z,46.10
2024-05-09T04:47:30.278Z,46.10
2024-05-09T04:52:35.178Z,46.10
2024-05-09T04:57:42.527Z,46.10
2024-05-09T05:02:47.291Z,46.20
2024-05-09T05:07:51.943Z,46.20
2024-05-09T05:13:15.198Z,46.20
2024-05-09T05:18:20.265Z,46.20
2024-05-09T05:23:25.740Z,46.20
2024-05-09T05:28:32.982Z,46.80
2024-05-09T05:33:37.762Z,46.20
2024-05-09T05:38:42.695Z,46.90
2024-05-09T05:43:50.099Z,46.30
2024-05-09T05:48:54.953Z,46.30
2024-05-09T05:53:59.641Z,46.30
2024-05-09T05:59:06.901Z,46.30
2024-05-09T06:04:11.631Z,46.30
2024-05-09T06:09:16.311Z,46.20
2024-05-09T06:14:23.550Z,46.90
2024-05-09T06:19:28.474Z,46.30
2024-05-09T06:24:33.211Z,46.30
2024-05-09T06:29:41.473Z,46.30
2024-05-09T06:34:46.152Z,46.30
2024-05-09T06:39:50.828Z,46.40
2024-05-09T06:44:58.142Z,46.40
2024-05-09T06:50:03.637Z,46.40
2024-05-09T06:55:09.779Z,46.40
2024-05-09T07:00:23.119Z,46.30
2024-05-09T07:05:35.259Z,46.40
2024-05-09T07:10:39.880Z,46.40
2024-05-09T07:15:47.115Z,46.40
2024-05-09T07:20:51.780Z,46.40
2024-05-09T07:25:57.796Z,46.40
2024-05-09T07:31:05.037Z,46.40
2024-05-09T07:36:10.116Z,46.40
2024-05-09T07:41:14.787Z,46.50
2024-05-09T07:53:08.593Z,46.50
2024-05-09T07:56:54.592Z,46.50
2024-05-09T08:02:02.556Z,46.60
2024-05-09T08:07:07.630Z,47.20
2024-05-09T08:12:13.471Z,49.20
2024-05-09T08:17:20.699Z,50.00
2024-05-09T08:22:25.311Z,50.60
2024-05-09T08:27:30.929Z,50.90
2024-05-09T08:32:38.914Z,51.40
2024-05-09T08:37:43.799Z,51.70
2024-05-09T08:42:52.719Z,52.30
2024-05-09T08:48:05.600Z,52.70
2024-05-09T08:53:11.011Z,52.60
2024-05-09T08:58:18.253Z,52.90
2024-05-09T09:03:29.806Z,53.50
2024-05-09T09:08:34.918Z,53.40
2024-05-09T09:13:41.051Z,53.00
2024-05-09T09:18:51.222Z,51.80
2024-05-09T09:23:56.027Z,51.60
2024-05-09T09:29:04.354Z,51.20
2024-05-09T09:34:12.878Z,50.80
2024-05-09T09:39:20.612Z,50.40
2024-05-09T09:44:25.268Z,50.30
2024-05-09T09:49:36.777Z,50.10
2024-05-09T09:54:42.263Z,50.40
2024-05-09T09:59:49.360Z,50.30
2024-05-09T10:04:56.793Z,50.20
2024-05-09T10:10:01.647Z,50.00
2024-05-09T10:15:11.074Z,49.90
2024-05-09T10:20:22.062Z,49.70
2024-05-09T10:25:32.309Z,49.50
2024-05-09T10:30:37.427Z,49.40
2024-05-09T10:35:54.316Z,49.20
2024-05-09T10:40:59.710Z,49.10
2024-05-09T10:46:04.531Z,49.00
2024-05-09T10:51:12.186Z,48.90
2024-05-09T10:56:17.590Z,48.70
2024-05-09T11:01:22.467Z,48.70
2024-05-09T11:06:29.854Z,48.50
2024-05-09T11:11:35.078Z,48.40
2024-05-09T11:16:39.738Z,48.40
2024-05-09T11:21:53.131Z,48.30
2024-05-09T11:26:59.365Z,48.10
2024-05-09T11:32:04.079Z,48.10
2024-05-09T11:37:12.470Z,48.10
2024-05-09T11:42:17.569Z,48.00
2024-05-09T11:47:22.777Z,47.90
2024-05-09T11:52:30.070Z,47.90
2024-05-09T11:57:34.701Z,47.90
2024-05-09T12:02:39.402Z,47.70
2024-05-09T12:07:46.591Z,47.70
2024-05-09T12:12:51.211Z,47.60
2024-05-09T12:17:58.378Z,47.70
2024-05-09T12:23:09.304Z,47.60
2024-05-09T12:28:15.141Z,47.50
2024-05-09T12:33:20.964Z,47.50
2024-05-09T12:38:28.315Z,47.40
2024-05-09T12:43:32.984Z,47.40
2024-05-09T12:48:37.892Z,47.30
2024-05-09T12:53:45.271Z,47.30
2024-05-09T12:58:49.976Z,47.30
2024-05-09T13:03:54.784Z,47.30
2024-05-09T13:09:02.147Z,47.20
2024-05-09T13:14:06.749Z,47.20
2024-05-09T13:19:11.462Z,47.20
2024-05-09T13:24:18.762Z,47.10
2024-05-09T13:29:23.413Z,47.10
2024-05-09T13:34:28.078Z,47.10
2024-05-09T13:39:35.374Z,47.10
2024-05-09T13:44:40.031Z,47.00
2024-05-09T13:49:44.793Z,47.10
2024-05-09T13:54:52.108Z,47.10
2024-05-09T13:59:56.975Z,47.10
2024-05-09T14:05:01.748Z,47.00
2024-05-09T14:10:19.741Z,47.00
2024-05-09T14:15:30.413Z,47.00
2024-05-09T14:20:35.177Z,47.00
2024-05-09T14:25:43.892Z,46.90
2024-05-09T14:30:49.606Z,46.90
2024-05-09T14:35:54.667Z,46.90
2024-05-09T14:41:02.097Z,46.90
2024-05-09T14:46:07.008Z,46.90
2024-05-09T14:51:11.742Z,46.90
2024-05-09T14:56:21.581Z,46.90
2024-05-09T15:01:26.834Z,46.80
2024-05-09T15:06:31.768Z,46.80
2024-05-09T15:11:39.059Z,46.80
2024-05-09T15:16:43.787Z,46.80
2024-05-09T15:21:48.436Z,46.80
2024-05-09T15:26:55.677Z,46.80
2024-05-09T15:32:00.380Z,46.80
2024-05-09T15:37:05.658Z,46.80
2024-05-09T15:42:13.038Z,46.80
2024-05-09T15:47:18.114Z,46.80
2024-05-09T15:52:23.005Z,46.80
2024-05-09T15:57:30.544Z,46.90
2024-05-09T16:02:35.414Z,46.90
2024-05-09T16:07:40.356Z,46.90
2024-05-09T16:12:47.587Z,46.90
2024-05-09T16:17:52.254Z,46.90
2024-05-09T16:22:56.903Z,46.90
2024-05-09T16:28:07.555Z,46.90
2024-05-09T16:33:15.150Z,46.90
2024-05-09T16:38:20.052Z,46.90
2024-05-09T16:43:27.304Z,46.80
2024-05-09T16:48:32.137Z,46.80
2024-05-09T16:53:37.019Z,46.80
2024-05-09T16:58:44.515Z,46.80
2024-05-09T17:03:49.284Z,46.80
2024-05-09T17:08:55.491Z,46.80
2024-05-09T17:14:02.898Z,46.80
2024-05-09T17:19:07.655Z,46.80
2024-05-09T17:24:12.306Z,46.80
2024-05-09T17:29:19.659Z,46.80
2024-05-09T17:34:24.395Z,46.80
2024-05-09T17:39:29.440Z,46.80
2024-05-09T17:44:36.680Z,46.80
2024-05-09T17:49:41.402Z,46.80
2024-05-09T17:54:46.105Z,46.80
2024-05-09T17:59:54.054Z,46.90
2024-05-09T18:04:58.788Z,46.80
2024-05-09T18:10:10.212Z,46.80
2024-05-09T18:15:23.064Z,46.90
2024-05-09T18:20:37.763Z,46.80
2024-05-09T18:25:48.477Z,46.90
2024-05-09T18:30:55.923Z,46.80
2024-05-09T18:36:00.631Z,46.80
2024-05-09T18:41:05.290Z,46.80
2024-05-09T18:46:12.578Z,46.80
2024-05-09T18:51:17.452Z,46.80
2024-05-09T18:56:22.205Z,46.80
2024-05-09T19:01:29.686Z,46.80
2024-05-09T19:06:36.306Z,46.80
2024-05-09T19:11:41.004Z,46.80
2024-05-09T19:16:48.322Z,46.80
2024-05-09T19:21:52.959Z,46.80
2024-05-09T19:26:58.215Z,46.90
2024-05-09T19:32:05.671Z,46.80
2024-05-09T19:37:10.457Z,46.80
2024-05-09T19:42:15.191Z,46.70
2024-05-09T19:47:22.831Z,46.80
2024-05-09T19:52:27.469Z,46.80
2024-05-09T19:57:32.091Z,46.80
2024-05-09T20:02:39.511Z,46.80
2024-05-09T20:07:45.009Z,46.70
2024-05-09T20:12:49.725Z,46.80
2024-05-09T20:17:57.125Z,46.80
2024-05-09T20:23:01.822Z,46.70
2024-05-09T20:28:07.305Z,46.70
2024-05-09T20:33:14.866Z,46.80
2024-05-09T20:38:19.529Z,46.80
2024-05-09T20:43:24.169Z,46.90
2024-05-09T20:48:31.527Z,46.80
2024-05-09T20:53:36.231Z,46.70
2024-05-09T20:58:40.867Z,46.80
2024-05-09T21:03:48.336Z,46.80
2024-05-09T21:08:53.102Z,46.80
2024-05-09T21:13:57.816Z,46.80
2024-05-09T21:19:05.064Z,46.70
2024-05-09T21:24:10.246Z,46.70
2024-05-09T21:29:14.834Z,46.70
2024-05-09T21:34:22.234Z,46.70
2024-05-09T21:39:27.428Z,46.70
2024-05-09T21:44:32.346Z,46.60
2024-05-09T21:49:39.630Z,46.60
2024-05-09T21:54:44.508Z,46.60
2024-05-09T21:59:49.150Z,46.60
2024-05-09T22:04:56.461Z,46.60
2024-05-09T22:10:01.369Z,46.80
2024-05-09T22:15:06.450Z,46.50
2024-05-09T22:20:21.860Z,46.60
2024-05-09T22:25:33.405Z,46.60
2024-05-09T22:30:39.948Z,46.60
2024-05-09T22:35:48.139Z,46.60
2024-05-09T22:40:52.974Z,46.50
2024-05-09T22:45:58.010Z,46.50
2024-05-09T22:51:05.233Z,46.50
2024-05-09T22:56:10.448Z,46.50
2024-05-09T23:01:17.558Z,46.50
2024-05-09T23:06:24.818Z,46.50
2024-05-09T23:11:29.540Z,46.40
2024-05-09T23:16:34.262Z,46.50
2024-05-09T23:21:43.899Z,46.40
2024-05-09T23:26:48.646Z,46.40
2024-05-09T23:31:53.412Z,46.40
2024-05-09T23:37:00.687Z,46.40
2024-05-09T23:42:05.879Z,46.40
2024-05-09T23:47:11.014Z,46.40
2024-05-09T23:52:18.578Z,46.40
2024-05-09T23:57:23.820Z,46.40
